sensor_id;sensor_type;location;lat;lon;timestamp;pressure;altitude;pressure_sealevel;temperature;humidity
79067;BME280;68470;50.224;14.348;2023-06-19T00:00:13;99303.16;;;13.77;92.25
79067;BME280;68470;50.224;14.348;2023-06-19T00:03:00;99308.22;;;13.65;92.21
79067;BME280;68470;50.224;14.348;2023-06-19T00:05:26;99306.41;;;13.45;92.47
79067;BME280;68470;50.224;14.348;2023-06-19T00:07:52;99303.00;;;13.59;92.73
79067;BME280;68470;50.224;14.348;2023-06-19T00:10:18;99303.50;;;13.66;92.83
79067;BME280;68470;50.224;14.348;2023-06-19T00:12:44;99296.91;;;13.57;92.90
79067;BME280;68470;50.224;14.348;2023-06-19T00:15:10;99299.09;;;13.65;92.19
79067;BME280;68470;50.224;14.348;2023-06-19T00:17:36;99299.28;;;13.73;91.14
79067;BME280;68470;50.224;14.348;2023-06-19T00:20:04;99290.81;;;13.60;91.73
79067;BME280;68470;50.224;14.348;2023-06-19T00:22:31;99292.41;;;13.71;91.09
79067;BME280;68470;50.224;14.348;2023-06-19T00:24:57;99307.88;;;13.72;90.97
79067;BME280;68470;50.224;14.348;2023-06-19T00:27:22;99302.38;;;13.67;90.73
79067;BME280;68470;50.224;14.348;2023-06-19T00:29:52;99298.56;;;13.63;90.57
79067;BME280;68470;50.224;14.348;2023-06-19T00:32:18;99302.00;;;13.39;92.11
79067;BME280;68470;50.224;14.348;2023-06-19T00:34:44;99294.78;;;13.48;91.35
79067;BME280;68470;50.224;14.348;2023-06-19T00:37:10;99295.91;;;13.42;92.21
79067;BME280;68470;50.224;14.348;2023-06-19T00:39:39;99289.44;;;13.18;93.77
79067;BME280;68470;50.224;14.348;2023-06-19T00:42:06;99287.19;;;13.20;94.37
79067;BME280;68470;50.224;14.348;2023-06-19T00:44:32;99285.03;;;13.12;94.54
79067;BME280;68470;50.224;14.348;2023-06-19T00:46:58;99280.03;;;13.09;94.13
79067;BME280;68470;50.224;14.348;2023-06-19T00:49:26;99286.81;;;12.82;95.14
79067;BME280;68470;50.224;14.348;2023-06-19T00:51:53;99283.50;;;12.80;95.52
79067;BME280;68470;50.224;14.348;2023-06-19T00:54:20;99281.63;;;12.65;95.44
79067;BME280;68470;50.224;14.348;2023-06-19T00:56:46;99281.88;;;12.69;95.89
79067;BME280;68470;50.224;14.348;2023-06-19T00:59:16;99276.59;;;12.83;94.68
79067;BME280;68470;50.224;14.348;2023-06-19T01:01:43;99281.84;;;12.74;95.64
79067;BME280;68470;50.224;14.348;2023-06-19T01:04:09;99282.44;;;12.66;95.94
79067;BME280;68470;50.224;14.348;2023-06-19T01:07:03;99272.78;;;12.58;96.80
79067;BME280;68470;50.224;14.348;2023-06-19T01:09:32;99279.72;;;12.56;96.90
79067;BME280;68470;50.224;14.348;2023-06-19T01:12:10;99269.22;;;12.63;96.61
79067;BME280;68470;50.224;14.348;2023-06-19T01:14:45;99264.50;;;12.58;97.08
79067;BME280;68470;50.224;14.348;2023-06-19T01:17:15;99264.53;;;12.53;97.03
79067;BME280;68470;50.224;14.348;2023-06-19T01:19:41;99265.66;;;12.42;97.04
79067;BME280;68470;50.224;14.348;2023-06-19T01:22:07;99266.50;;;12.43;97.07
79067;BME280;68470;50.224;14.348;2023-06-19T01:24:33;99256.56;;;12.42;96.87
79067;BME280;68470;50.224;14.348;2023-06-19T01:26:59;99268.06;;;12.69;94.72
79067;BME280;68470;50.224;14.348;2023-06-19T01:29:25;99272.75;;;12.74;93.88
79067;BME280;68470;50.224;14.348;2023-06-19T01:31:55;99267.53;;;12.67;93.82
79067;BME280;68470;50.224;14.348;2023-06-19T01:34:25;99262.00;;;12.67;93.31
79067;BME280;68470;50.224;14.348;2023-06-19T01:36:54;99263.13;;;12.66;94.15
79067;BME280;68470;50.224;14.348;2023-06-19T01:39:23;99269.00;;;12.39;95.97
79067;BME280;68470;50.224;14.348;2023-06-19T01:41:49;99272.06;;;12.32;96.68
79067;BME280;68470;50.224;14.348;2023-06-19T01:44:16;99273.72;;;12.33;97.33
79067;BME280;68470;50.224;14.348;2023-06-19T01:46:42;99260.47;;;12.25;96.95
79067;BME280;68470;50.224;14.348;2023-06-19T01:49:08;99268.75;;;12.20;97.15
79067;BME280;68470;50.224;14.348;2023-06-19T01:51:35;99270.69;;;12.25;96.84
79067;BME280;68470;50.224;14.348;2023-06-19T01:54:01;99267.41;;;12.18;96.73
79067;BME280;68470;50.224;14.348;2023-06-19T01:56:27;99267.09;;;12.29;96.07
79067;BME280;68470;50.224;14.348;2023-06-19T01:58:53;99265.47;;;12.18;95.75
79067;BME280;68470;50.224;14.348;2023-06-19T02:01:21;99273.72;;;12.33;94.59
79067;BME280;68470;50.224;14.348;2023-06-19T02:03:46;99259.38;;;12.21;94.76
79067;BME280;68470;50.224;14.348;2023-06-19T02:06:12;99268.75;;;12.35;94.18
79067;BME280;68470;50.224;14.348;2023-06-19T02:08:38;99271.50;;;12.35;94.51
79067;BME280;68470;50.224;14.348;2023-06-19T02:11:04;99275.59;;;12.53;93.83
79067;BME280;68470;50.224;14.348;2023-06-19T02:13:30;99280.63;;;12.21;95.24
79067;BME280;68470;50.224;14.348;2023-06-19T02:15:55;99268.50;;;12.17;95.79
79067;BME280;68470;50.224;14.348;2023-06-19T02:18:22;99284.22;;;12.16;95.45
79067;BME280;68470;50.224;14.348;2023-06-19T02:20:47;99279.53;;;12.17;95.02
79067;BME280;68470;50.224;14.348;2023-06-19T02:23:13;99286.41;;;12.24;95.20
79067;BME280;68470;50.224;14.348;2023-06-19T02:25:39;99281.75;;;12.20;95.20
79067;BME280;68470;50.224;14.348;2023-06-19T02:28:05;99275.41;;;12.14;95.48
79067;BME280;68470;50.224;14.348;2023-06-19T02:30:31;99283.41;;;12.16;95.15
79067;BME280;68470;50.224;14.348;2023-06-19T02:32:57;99284.22;;;12.26;94.76
79067;BME280;68470;50.224;14.348;2023-06-19T02:35:22;99288.03;;;12.41;94.06
79067;BME280;68470;50.224;14.348;2023-06-19T02:37:49;99284.22;;;12.26;94.21
79067;BME280;68470;50.224;14.348;2023-06-19T02:40:15;99286.94;;;12.37;93.54
79067;BME280;68470;50.224;14.348;2023-06-19T02:42:40;99286.66;;;12.38;92.86
79067;BME280;68470;50.224;14.348;2023-06-19T02:45:06;99287.00;;;12.11;93.85
79067;BME280;68470;50.224;14.348;2023-06-19T02:47:33;99282.31;;;12.07;93.84
79067;BME280;68470;50.224;14.348;2023-06-19T02:49:59;99282.06;;;11.98;95.05
79067;BME280;68470;50.224;14.348;2023-06-19T02:52:27;99282.06;;;11.93;95.58
79067;BME280;68470;50.224;14.348;2023-06-19T02:54:53;99276.28;;;11.94;96.46
79067;BME280;68470;50.224;14.348;2023-06-19T02:57:19;99284.25;;;11.86;97.04
79067;BME280;68470;50.224;14.348;2023-06-19T02:59:44;99279.81;;;11.74;97.33
79067;BME280;68470;50.224;14.348;2023-06-19T03:02:11;99284.28;;;11.81;96.78
79067;BME280;68470;50.224;14.348;2023-06-19T03:04:37;99273.75;;;11.72;97.10
79067;BME280;68470;50.224;14.348;2023-06-19T03:07:03;99274.31;;;11.90;96.45
79067;BME280;68470;50.224;14.348;2023-06-19T03:09:29;99269.34;;;11.92;96.22
79067;BME280;68470;50.224;14.348;2023-06-19T03:11:54;99279.00;;;11.99;96.12
79067;BME280;68470;50.224;14.348;2023-06-19T03:14:20;99267.69;;;12.16;95.00
79067;BME280;68470;50.224;14.348;2023-06-19T03:16:46;99259.41;;;12.16;95.57
79067;BME280;68470;50.224;14.348;2023-06-19T03:19:12;99265.44;;;12.23;94.97
79067;BME280;68470;50.224;14.348;2023-06-19T03:21:38;99260.47;;;12.35;94.27
79067;BME280;68470;50.224;14.348;2023-06-19T03:24:04;99265.63;;;12.62;93.57
79067;BME280;68470;50.224;14.348;2023-06-19T03:26:30;99274.13;;;12.71;92.42
79067;BME280;68470;50.224;14.348;2023-06-19T03:28:55;99268.03;;;12.79;92.02
79067;BME280;68470;50.224;14.348;2023-06-19T03:31:21;99264.75;;;12.77;92.15
79067;BME280;68470;50.224;14.348;2023-06-19T03:33:46;99269.25;;;12.53;94.37
79067;BME280;68470;50.224;14.348;2023-06-19T03:36:13;99267.56;;;12.57;94.10
79067;BME280;68470;50.224;14.348;2023-06-19T03:38:39;99273.91;;;12.62;93.24
79067;BME280;68470;50.224;14.348;2023-06-19T03:41:05;99276.97;;;12.61;92.77
79067;BME280;68470;50.224;14.348;2023-06-19T03:43:30;99276.94;;;12.66;92.56
79067;BME280;68470;50.224;14.348;2023-06-19T03:45:56;99278.31;;;12.63;92.98
79067;BME280;68470;50.224;14.348;2023-06-19T03:48:22;99267.75;;;12.81;91.95
79067;BME280;68470;50.224;14.348;2023-06-19T03:50:47;99267.44;;;12.87;91.38
79067;BME280;68470;50.224;14.348;2023-06-19T03:53:13;99272.97;;;12.87;91.09
79067;BME280;68470;50.224;14.348;2023-06-19T03:55:39;99281.81;;;12.84;91.78
79067;BME280;68470;50.224;14.348;2023-06-19T03:58:05;99268.28;;;12.88;91.22
79067;BME280;68470;50.224;14.348;2023-06-19T04:00:32;99277.66;;;12.87;91.64
79067;BME280;68470;50.224;14.348;2023-06-19T04:02:57;99274.59;;;12.99;91.19
79067;BME280;68470;50.224;14.348;2023-06-19T04:05:24;99277.38;;;12.93;91.04
79067;BME280;68470;50.224;14.348;2023-06-19T04:07:50;99284.56;;;12.94;91.21
79067;BME280;68470;50.224;14.348;2023-06-19T04:10:16;99279.28;;;12.93;91.50
79067;BME280;68470;50.224;14.348;2023-06-19T04:12:41;99282.03;;;12.93;91.71
79067;BME280;68470;50.224;14.348;2023-06-19T04:15:08;99278.19;;;12.94;92.14
79067;BME280;68470;50.224;14.348;2023-06-19T04:17:33;99275.69;;;12.92;92.37
79067;BME280;68470;50.224;14.348;2023-06-19T04:20:00;99272.69;;;12.89;92.63
79067;BME280;68470;50.224;14.348;2023-06-19T04:22:25;99274.31;;;12.95;92.00
79067;BME280;68470;50.224;14.348;2023-06-19T04:24:51;99282.97;;;12.78;93.07
79067;BME280;68470;50.224;14.348;2023-06-19T04:27:17;99276.53;;;12.93;92.63
79067;BME280;68470;50.224;14.348;2023-06-19T04:29:43;99276.22;;;13.00;93.13
79067;BME280;68470;50.224;14.348;2023-06-19T04:32:09;99290.81;;;13.15;91.93
79067;BME280;68470;50.224;14.348;2023-06-19T04:34:38;99289.97;;;13.64;89.88
79067;BME280;68470;50.224;14.348;2023-06-19T04:37:04;99287.22;;;13.93;88.72
79067;BME280;68470;50.224;14.348;2023-06-19T04:39:31;99288.72;;;14.14;87.52
79067;BME280;68470;50.224;14.348;2023-06-19T04:41:56;99293.56;;;14.57;85.41
79067;BME280;68470;50.224;14.348;2023-06-19T04:44:22;99293.63;;;14.99;83.28
79067;BME280;68470;50.224;14.348;2023-06-19T04:46:48;99290.97;;;15.32;82.42
79067;BME280;68470;50.224;14.348;2023-06-19T04:49:14;99299.50;;;15.35;82.31
79067;BME280;68470;50.224;14.348;2023-06-19T04:51:40;99308.03;;;15.58;81.56
79067;BME280;68470;50.224;14.348;2023-06-19T04:54:06;99312.50;;;15.59;81.00
79067;BME280;68470;50.224;14.348;2023-06-19T04:56:32;99304.91;;;15.83;79.48
79067;BME280;68470;50.224;14.348;2023-06-19T04:58:58;99311.53;;;16.20;77.77
79067;BME280;68470;50.224;14.348;2023-06-19T05:01:26;99311.94;;;16.27;77.93
79067;BME280;68470;50.224;14.348;2023-06-19T05:03:56;99313.63;;;16.09;78.03
79067;BME280;68470;50.224;14.348;2023-06-19T05:06:25;99323.34;;;15.93;78.73
79067;BME280;68470;50.224;14.348;2023-06-19T05:08:51;99314.88;;;16.03;78.73
79067;BME280;68470;50.224;14.348;2023-06-19T05:11:17;99318.59;;;16.12;78.04
79067;BME280;68470;50.224;14.348;2023-06-19T05:13:44;99298.56;;;16.29;77.56
79067;BME280;68470;50.224;14.348;2023-06-19T05:16:10;99303.22;;;16.34;77.57
79067;BME280;68470;50.224;14.348;2023-06-19T05:18:37;99311.06;;;16.32;77.76
79067;BME280;68470;50.224;14.348;2023-06-19T05:21:02;99314.38;;;16.47;77.60
79067;BME280;68470;50.224;14.348;2023-06-19T05:23:28;99313.59;;;16.28;77.85
79067;BME280;68470;50.224;14.348;2023-06-19T05:25:53;99311.06;;;16.45;77.16
79067;BME280;68470;50.224;14.348;2023-06-19T05:28:19;99312.75;;;16.28;77.78
79067;BME280;68470;50.224;14.348;2023-06-19T05:30:45;99312.56;;;16.70;76.32
79067;BME280;68470;50.224;14.348;2023-06-19T05:33:11;99315.88;;;16.86;76.40
79067;BME280;68470;50.224;14.348;2023-06-19T05:35:42;99325.44;;;16.94;75.40
79067;BME280;68470;50.224;14.348;2023-06-19T05:38:09;99331.94;;;16.89;76.33
79067;BME280;68470;50.224;14.348;2023-06-19T05:40:35;99329.97;;;16.76;77.25
79067;BME280;68470;50.224;14.348;2023-06-19T05:43:01;99322.53;;;16.25;78.80
79067;BME280;68470;50.224;14.348;2023-06-19T05:45:27;99334.41;;;16.31;79.60
79067;BME280;68470;50.224;14.348;2023-06-19T05:47:54;99339.31;;;16.66;78.20
79067;BME280;68470;50.224;14.348;2023-06-19T05:50:19;99345.84;;;16.89;76.63
79067;BME280;68470;50.224;14.348;2023-06-19T05:52:45;99349.34;;;17.08;75.58
79067;BME280;68470;50.224;14.348;2023-06-19T05:55:11;99344.28;;;17.24;74.40
79067;BME280;68470;50.224;14.348;2023-06-19T05:57:38;99347.38;;;17.36;73.84
79067;BME280;68470;50.224;14.348;2023-06-19T06:00:05;99345.91;;;17.39;74.28
79067;BME280;68470;50.224;14.348;2023-06-19T06:02:36;99351.16;;;17.54;73.99
79067;BME280;68470;50.224;14.348;2023-06-19T06:05:02;99347.75;;;17.57;74.38
79067;BME280;68470;50.224;14.348;2023-06-19T06:07:28;99359.31;;;17.09;76.78
79067;BME280;68470;50.224;14.348;2023-06-19T06:09:54;99363.53;;;16.79;77.72
79067;BME280;68470;50.224;14.348;2023-06-19T06:12:20;99364.03;;;16.68;78.64
79067;BME280;68470;50.224;14.348;2023-06-19T06:14:45;99368.81;;;16.81;78.59
79067;BME280;68470;50.224;14.348;2023-06-19T06:17:12;99361.97;;;16.73;78.01
79067;BME280;68470;50.224;14.348;2023-06-19T06:19:38;99368.72;;;16.53;79.18
79067;BME280;68470;50.224;14.348;2023-06-19T06:22:05;99373.59;;;16.43;79.45
79067;BME280;68470;50.224;14.348;2023-06-19T06:24:31;99373.75;;;16.51;79.18
79067;BME280;68470;50.224;14.348;2023-06-19T06:26:57;99374.75;;;16.88;77.54
79067;BME280;68470;50.224;14.348;2023-06-19T06:29:24;99369.22;;;17.16;76.64
79067;BME280;68470;50.224;14.348;2023-06-19T06:31:50;99365.03;;;17.82;73.51
79067;BME280;68470;50.224;14.348;2023-06-19T06:34:19;99364.38;;;18.21;71.97
79067;BME280;68470;50.224;14.348;2023-06-19T06:36:45;99364.25;;;18.26;71.44
79067;BME280;68470;50.224;14.348;2023-06-19T06:39:11;99364.81;;;18.37;71.08
79067;BME280;68470;50.224;14.348;2023-06-19T06:41:36;99368.34;;;18.73;69.43
79067;BME280;68470;50.224;14.348;2023-06-19T06:44:02;99365.88;;;19.03;68.61
79067;BME280;68470;50.224;14.348;2023-06-19T06:46:32;99370.66;;;19.11;67.97
79067;BME280;68470;50.224;14.348;2023-06-19T06:48:58;99374.72;;;19.05;68.50
79067;BME280;68470;50.224;14.348;2023-06-19T06:51:24;99373.03;;;19.35;66.99
79067;BME280;68470;50.224;14.348;2023-06-19T06:53:50;99388.91;;;19.65;66.01
79067;BME280;68470;50.224;14.348;2023-06-19T06:56:16;99393.69;;;19.25;67.37
79067;BME280;68470;50.224;14.348;2023-06-19T06:58:42;99392.00;;;19.55;66.88
79067;BME280;68470;50.224;14.348;2023-06-19T07:01:08;99404.31;;;19.63;67.10
79067;BME280;68470;50.224;14.348;2023-06-19T07:03:33;99403.22;;;19.72;66.65
79067;BME280;68470;50.224;14.348;2023-06-19T07:06:00;99397.19;;;20.05;65.27
79067;BME280;68470;50.224;14.348;2023-06-19T07:08:26;99395.69;;;20.25;65.13
79067;BME280;68470;50.224;14.348;2023-06-19T07:10:52;99400.31;;;20.47;63.76
79067;BME280;68470;50.224;14.348;2023-06-19T07:13:18;99391.97;;;21.02;61.95
79067;BME280;68470;50.224;14.348;2023-06-19T07:15:44;99395.34;;;21.25;61.41
79067;BME280;68470;50.224;14.348;2023-06-19T07:18:10;99389.13;;;21.11;61.64
79067;BME280;68470;50.224;14.348;2023-06-19T07:20:35;99389.03;;;20.81;62.51
79067;BME280;68470;50.224;14.348;2023-06-19T07:23:01;99398.31;;;20.30;64.69
79067;BME280;68470;50.224;14.348;2023-06-19T07:25:27;99386.72;;;19.53;66.70
79067;BME280;68470;50.224;14.348;2023-06-19T07:27:53;99382.72;;;19.37;67.96
79067;BME280;68470;50.224;14.348;2023-06-19T07:30:20;99386.63;;;20.28;64.84
79067;BME280;68470;50.224;14.348;2023-06-19T07:32:45;99390.72;;;20.73;63.31
79067;BME280;68470;50.224;14.348;2023-06-19T07:35:12;99388.88;;;21.33;61.51
79067;BME280;68470;50.224;14.348;2023-06-19T07:37:37;99386.41;;;21.70;60.14
79067;BME280;68470;50.224;14.348;2023-06-19T07:40:03;99381.84;;;21.86;59.29
79067;BME280;68470;50.224;14.348;2023-06-19T07:42:29;99386.75;;;21.68;60.22
79067;BME280;68470;50.224;14.348;2023-06-19T07:44:55;99384.66;;;21.56;59.86
79067;BME280;68470;50.224;14.348;2023-06-19T07:47:20;99383.41;;;20.98;60.58
79067;BME280;68470;50.224;14.348;2023-06-19T07:49:46;99386.78;;;19.79;64.05
79067;BME280;68470;50.224;14.348;2023-06-19T07:52:12;99381.53;;;19.21;66.98
79067;BME280;68470;50.224;14.348;2023-06-19T07:54:51;99378.56;;;19.17;66.96
79067;BME280;68470;50.224;14.348;2023-06-19T07:57:17;99365.03;;;19.50;65.83
79067;BME280;68470;50.224;14.348;2023-06-19T07:59:43;99369.09;;;19.36;67.21
79067;BME280;68470;50.224;14.348;2023-06-19T08:02:10;99362.81;;;19.21;68.87
79067;BME280;68470;50.224;14.348;2023-06-19T08:04:36;99374.53;;;19.41;67.66
79067;BME280;68470;50.224;14.348;2023-06-19T08:07:02;99377.78;;;19.82;64.60
79067;BME280;68470;50.224;14.348;2023-06-19T08:09:27;99377.13;;;20.20;63.79
79067;BME280;68470;50.224;14.348;2023-06-19T08:11:53;99374.63;;;20.70;61.00
79067;BME280;68470;50.224;14.348;2023-06-19T08:14:19;99368.69;;;20.72;60.63
79067;BME280;68470;50.224;14.348;2023-06-19T08:16:45;99366.38;;;20.83;60.77
79067;BME280;68470;50.224;14.348;2023-06-19T08:19:11;99374.78;;;21.12;60.04
79067;BME280;68470;50.224;14.348;2023-06-19T08:21:36;99373.47;;;21.56;57.79
79067;BME280;68470;50.224;14.348;2023-06-19T08:24:02;99365.56;;;21.50;57.91
79067;BME280;68470;50.224;14.348;2023-06-19T08:26:28;99372.19;;;21.07;60.80
79067;BME280;68470;50.224;14.348;2023-06-19T08:28:54;99363.75;;;21.24;60.99
79067;BME280;68470;50.224;14.348;2023-06-19T08:31:20;99364.81;;;20.94;61.53
79067;BME280;68470;50.224;14.348;2023-06-19T08:33:47;99366.09;;;20.15;63.14
79067;BME280;68470;50.224;14.348;2023-06-19T08:36:16;99359.22;;;20.04;68.90
79067;BME280;68470;50.224;14.348;2023-06-19T08:38:42;99346.13;;;19.47;68.69
79067;BME280;68470;50.224;14.348;2023-06-19T08:41:07;99359.09;;;19.43;68.94
79067;BME280;68470;50.224;14.348;2023-06-19T08:43:33;99345.59;;;19.28;68.53
79067;BME280;68470;50.224;14.348;2023-06-19T08:46:14;99331.75;;;19.06;71.37
79067;BME280;68470;50.224;14.348;2023-06-19T08:48:40;99314.03;;;19.02;74.18
79067;BME280;68470;50.224;14.348;2023-06-19T08:51:07;99335.13;;;18.85;71.74
79067;BME280;68470;50.224;14.348;2023-06-19T08:53:34;99351.03;;;18.85;73.01
79067;BME280;68470;50.224;14.348;2023-06-19T08:56:01;99360.72;;;18.96;71.82
79067;BME280;68470;50.224;14.348;2023-06-19T08:58:26;99365.56;;;19.13;71.37
79067;BME280;68470;50.224;14.348;2023-06-19T09:00:52;99354.38;;;19.52;71.22
79067;BME280;68470;50.224;14.348;2023-06-19T09:03:21;99378.06;;;19.81;69.76
79067;BME280;68470;50.224;14.348;2023-06-19T09:05:48;99369.38;;;19.91;68.16
79067;BME280;68470;50.224;14.348;2023-06-19T09:08:18;99376.94;;;20.25;68.30
79067;BME280;68470;50.224;14.348;2023-06-19T09:11:04;99373.75;;;20.79;66.64
79067;BME280;68470;50.224;14.348;2023-06-19T09:13:31;99369.09;;;21.00;64.82
79067;BME280;68470;50.224;14.348;2023-06-19T09:16:04;99382.56;;;21.07;64.88
79067;BME280;68470;50.224;14.348;2023-06-19T09:18:41;99371.63;;;21.60;62.96
79067;BME280;68470;50.224;14.348;2023-06-19T09:21:15;99362.38;;;21.60;59.95
79067;BME280;68470;50.224;14.348;2023-06-19T09:23:41;99373.47;;;21.77;59.31
79067;BME280;68470;50.224;14.348;2023-06-19T09:26:06;99359.84;;;22.50;57.61
79067;BME280;68470;50.224;14.348;2023-06-19T09:28:33;99362.22;;;22.61;55.26
79067;BME280;68470;50.224;14.348;2023-06-19T09:31:02;99371.41;;;22.49;55.01
79067;BME280;68470;50.224;14.348;2023-06-19T09:33:32;99364.72;;;23.56;52.95
79067;BME280;68470;50.224;14.348;2023-06-19T09:36:00;99361.75;;;24.42;52.05
79067;BME280;68470;50.224;14.348;2023-06-19T09:38:29;99350.22;;;23.42;52.29
79067;BME280;68470;50.224;14.348;2023-06-19T09:40:56;99362.13;;;23.02;53.62
79067;BME280;68470;50.224;14.348;2023-06-19T09:43:34;99352.78;;;22.32;57.32
79067;BME280;68470;50.224;14.348;2023-06-19T09:46:02;99353.88;;;22.40;56.91
79067;BME280;68470;50.224;14.348;2023-06-19T09:48:30;99351.53;;;22.42;56.17
79067;BME280;68470;50.224;14.348;2023-06-19T09:51:03;99349.19;;;25.11;49.29
79067;BME280;68470;50.224;14.348;2023-06-19T09:53:30;99354.13;;;26.00;45.61
79067;BME280;68470;50.224;14.348;2023-06-19T09:55:56;99342.50;;;25.50;46.91
79067;BME280;68470;50.224;14.348;2023-06-19T09:58:22;99355.53;;;26.87;42.83
79067;BME280;68470;50.224;14.348;2023-06-19T10:00:48;99347.34;;;26.59;40.63
79067;BME280;68470;50.224;14.348;2023-06-19T10:03:16;99345.31;;;27.47;37.95
79067;BME280;68470;50.224;14.348;2023-06-19T10:05:42;99358.47;;;28.19;37.04
79067;BME280;68470;50.224;14.348;2023-06-19T10:08:08;99349.03;;;30.08;33.93
79067;BME280;68470;50.224;14.348;2023-06-19T10:10:34;99345.34;;;31.19;31.09
79067;BME280;68470;50.224;14.348;2023-06-19T10:13:14;99345.94;;;32.51;29.67
79067;BME280;68470;50.224;14.348;2023-06-19T10:15:44;99347.59;;;29.73;33.36
79067;BME280;68470;50.224;14.348;2023-06-19T10:20:42;99350.88;;;29.34;35.59
79067;BME280;68470;50.224;14.348;2023-06-19T10:23:15;99350.88;;;29.31;35.65
79067;BME280;68470;50.224;14.348;2023-06-19T10:25:47;99351.75;;;29.90;35.25
79067;BME280;68470;50.224;14.348;2023-06-19T10:31:02;99345.19;;;29.31;35.42
79067;BME280;68470;50.224;14.348;2023-06-19T10:33:33;99340.00;;;28.92;35.97
79067;BME280;68470;50.224;14.348;2023-06-19T10:36:19;99335.97;;;30.03;33.64
79067;BME280;68470;50.224;14.348;2023-06-19T10:38:46;99334.31;;;29.91;32.45
79067;BME280;68470;50.224;14.348;2023-06-19T10:41:19;99334.19;;;30.53;31.95
79067;BME280;68470;50.224;14.348;2023-06-19T10:44:06;99327.44;;;31.04;31.35
79067;BME280;68470;50.224;14.348;2023-06-19T10:46:36;99324.69;;;32.67;29.31
79067;BME280;68470;50.224;14.348;2023-06-19T10:49:03;99314.69;;;33.55;28.18
79067;BME280;68470;50.224;14.348;2023-06-19T10:51:30;99313.59;;;33.42;28.71
79067;BME280;68470;50.224;14.348;2023-06-19T10:53:57;99312.16;;;34.05;27.25
79067;BME280;68470;50.224;14.348;2023-06-19T10:56:24;99317.19;;;34.89;27.23
79067;BME280;68470;50.224;14.348;2023-06-19T10:59:00;99301.22;;;35.89;25.70
79067;BME280;68470;50.224;14.348;2023-06-19T11:04:04;99308.53;;;37.71;23.10
79067;BME280;68470;50.224;14.348;2023-06-19T11:06:30;99297.78;;;35.98;24.25
79067;BME280;68470;50.224;14.348;2023-06-19T11:08:56;99297.50;;;35.69;25.60
79067;BME280;68470;50.224;14.348;2023-06-19T11:11:22;99295.00;;;34.70;26.43
79067;BME280;68470;50.224;14.348;2023-06-19T11:13:48;99302.91;;;29.59;34.79
79067;BME280;68470;50.224;14.348;2023-06-19T11:16:14;99297.59;;;29.54;35.93
79067;BME280;68470;50.224;14.348;2023-06-19T11:18:40;99294.94;;;29.79;35.31
79067;BME280;68470;50.224;14.348;2023-06-19T11:21:08;99297.38;;;30.86;33.16
79067;BME280;68470;50.224;14.348;2023-06-19T11:23:34;99298.59;;;30.81;33.45
79067;BME280;68470;50.224;14.348;2023-06-19T11:26:06;99291.31;;;31.12;33.49
79067;BME280;68470;50.224;14.348;2023-06-19T11:28:32;99299.03;;;31.47;32.70
79067;BME280;68470;50.224;14.348;2023-06-19T11:31:03;99292.94;;;31.17;33.34
79067;BME280;68470;50.224;14.348;2023-06-19T11:33:29;99295.53;;;29.00;36.18
79067;BME280;68470;50.224;14.348;2023-06-19T11:36:00;99294.44;;;29.12;35.50
79067;BME280;68470;50.224;14.348;2023-06-19T11:38:27;99287.94;;;29.59;34.39
79067;BME280;68470;50.224;14.348;2023-06-19T11:40:55;99280.84;;;29.97;34.27
79067;BME280;68470;50.224;14.348;2023-06-19T11:43:28;99279.50;;;30.71;33.45
79067;BME280;68470;50.224;14.348;2023-06-19T11:46:06;99280.59;;;30.38;33.99
79067;BME280;68470;50.224;14.348;2023-06-19T11:48:36;99282.38;;;29.80;34.90
79067;BME280;68470;50.224;14.348;2023-06-19T11:51:02;99280.66;;;29.61;36.44
79067;BME280;68470;50.224;14.348;2023-06-19T11:53:28;99278.50;;;28.96;37.10
79067;BME280;68470;50.224;14.348;2023-06-19T11:55:54;99275.00;;;29.14;37.11
79067;BME280;68470;50.224;14.348;2023-06-19T11:58:21;99277.16;;;29.31;37.11
79067;BME280;68470;50.224;14.348;2023-06-19T12:00:47;99264.34;;;29.48;37.22
79067;BME280;68470;50.224;14.348;2023-06-19T12:03:14;99262.00;;;28.28;40.25
79067;BME280;68470;50.224;14.348;2023-06-19T12:05:39;99257.38;;;27.03;42.61
79067;BME280;68470;50.224;14.348;2023-06-19T12:08:06;99259.22;;;27.41;41.65
79067;BME280;68470;50.224;14.348;2023-06-19T12:10:33;99256.81;;;27.70;42.50
79067;BME280;68470;50.224;14.348;2023-06-19T12:12:59;99264.72;;;28.21;40.26
79067;BME280;68470;50.224;14.348;2023-06-19T12:15:24;99256.69;;;28.60;39.80
79067;BME280;68470;50.224;14.348;2023-06-19T12:17:51;99264.59;;;28.84;39.92
79067;BME280;68470;50.224;14.348;2023-06-19T12:20:17;99255.06;;;28.99;39.63
79067;BME280;68470;50.224;14.348;2023-06-19T12:22:43;99242.94;;;29.02;38.82
79067;BME280;68470;50.224;14.348;2023-06-19T12:25:09;99264.88;;;29.68;38.17
79067;BME280;68470;50.224;14.348;2023-06-19T12:27:37;99255.31;;;28.43;41.14
79067;BME280;68470;50.224;14.348;2023-06-19T12:30:04;99256.34;;;28.65;41.25
79067;BME280;68470;50.224;14.348;2023-06-19T12:32:30;99253.88;;;28.60;41.17
79067;BME280;68470;50.224;14.348;2023-06-19T12:34:55;99257.88;;;28.96;39.72
79067;BME280;68470;50.224;14.348;2023-06-19T12:37:22;99254.28;;;29.57;38.76
79067;BME280;68470;50.224;14.348;2023-06-19T12:39:48;99236.91;;;29.62;36.39
79067;BME280;68470;50.224;14.348;2023-06-19T12:42:15;99247.47;;;30.92;34.89
79067;BME280;68470;50.224;14.348;2023-06-19T12:44:41;99246.13;;;30.25;35.25
79067;BME280;68470;50.224;14.348;2023-06-19T12:47:07;99245.81;;;31.05;33.99
79067;BME280;68470;50.224;14.348;2023-06-19T12:49:33;99238.69;;;32.13;32.59
79067;BME280;68470;50.224;14.348;2023-06-19T12:52:00;99252.59;;;32.77;33.45
79067;BME280;68470;50.224;14.348;2023-06-19T12:54:26;99246.53;;;33.64;31.53
79067;BME280;68470;50.224;14.348;2023-06-19T12:56:53;99247.25;;;33.31;31.64